createdAt,value
2022-12-09T00:01:11.391Z,5.07
2022-12-09T04:47:01.272Z,11.38
2022-12-09T04:49:28.218Z,11.20
2022-12-09T04:51:54.912Z,11.93
2022-12-09T04:54:21.736Z,10.52
2022-12-09T04:56:49.540Z,11.05
2022-12-09T04:59:19.660Z,11.68
2022-12-09T05:01:46.507Z,12.10
2022-12-09T05:04:13.822Z,11.43
2022-12-09T05:06:40.931Z,11.60
2022-12-09T05:09:12.414Z,12.32
2022-12-09T05:11:39.819Z,12.57
2022-12-09T05:14:06.672Z,10.90
2022-12-09T05:16:33.706Z,12.35
2022-12-09T05:19:00.682Z,10.70
2022-12-09T05:21:27.667Z,11.63
2022-12-09T05:23:54.764Z,11.02
2022-12-09T05:26:23.567Z,12.55
2022-12-09T05:28:51.710Z,11.50
2022-12-09T05:31:21.118Z,11.68
2022-12-09T05:33:49.606Z,12.70
2022-12-09T05:36:18.927Z,12.48
2022-12-09T05:38:46.341Z,12.57
2022-12-09T05:41:13.540Z,11.50
2022-12-09T05:43:41.080Z,12.68
2022-12-09T05:46:08.804Z,12.20
2022-12-09T05:48:36.604Z,11.52
2022-12-09T05:51:06.782Z,12.48
2022-12-09T05:53:34.017Z,13.20
2022-12-09T05:56:00.978Z,13.02
2022-12-09T05:58:28.295Z,13.25
2022-12-09T06:00:56.664Z,13.25
2022-12-09T06:03:25.261Z,13.90
2022-12-09T06:05:52.523Z,14.23
2022-12-09T06:08:19.709Z,12.32
2022-12-09T06:10:47.096Z,13.45
2022-12-09T06:13:14.651Z,13.02
2022-12-09T06:15:41.772Z,13.63
2022-12-09T06:18:08.977Z,14.20
2022-12-09T06:20:40.456Z,14.82
2022-12-09T06:23:07.953Z,15.00
2022-12-09T06:25:35.006Z,14.30
2022-12-09T06:28:02.807Z,13.88
2022-12-09T06:30:29.669Z,14.50
2022-12-09T06:32:56.373Z,14.25
2022-12-09T06:35:23.575Z,13.43
2022-12-09T06:37:52.991Z,14.55
2022-12-09T06:40:22.142Z,13.88
2022-12-09T06:42:51.935Z,12.52
2022-12-09T06:45:19.439Z,13.93
2022-12-09T06:47:46.730Z,13.77
2022-12-09T06:50:14.535Z,14.05
2022-12-09T06:52:41.501Z,13.70
2022-12-09T06:55:08.923Z,14.30
2022-12-09T06:57:35.868Z,14.07
2022-12-09T07:00:04.823Z,13.70
2022-12-09T07:02:36.634Z,14.43
2022-12-09T07:05:04.675Z,13.35
2022-12-09T07:07:32.548Z,14.02
2022-12-09T07:10:02.127Z,13.68
2022-12-09T07:12:29.122Z,14.23
2022-12-09T07:14:55.869Z,13.77
2022-12-09T07:17:23.127Z,13.48
2022-12-09T07:19:50.066Z,14.75
2022-12-09T07:22:17.277Z,14.05
2022-12-09T07:24:44.615Z,15.20
2022-12-09T07:27:19.306Z,13.68
2022-12-09T07:29:47.048Z,13.52
2022-12-09T07:32:14.165Z,13.63
2022-12-09T07:34:41.536Z,13.50
2022-12-09T07:37:08.687Z,14.02
2022-12-09T07:39:35.415Z,14.82
2022-12-09T07:42:02.396Z,13.93
2022-12-09T07:44:29.800Z,13.32
2022-12-09T07:46:57.531Z,14.13
2022-12-09T07:49:24.928Z,14.32
2022-12-09T07:51:52.085Z,14.20
2022-12-09T07:54:19.907Z,13.38
2022-12-09T07:56:47.042Z,13.45
2022-12-09T07:59:15.327Z,13.55
2022-12-09T08:01:42.994Z,23.17
2022-12-09T08:04:10.224Z,13.43
2022-12-09T08:06:38.010Z,13.80
2022-12-09T08:09:08.207Z,14.52
2022-12-09T08:11:35.969Z,15.32
2022-12-09T08:14:10.988Z,15.43
2022-12-09T08:16:40.299Z,13.73
2022-12-09T08:19:07.367Z,18.75
2022-12-09T08:21:35.187Z,19.67
2022-12-09T08:24:05.955Z,40.83
2022-12-09T08:26:34.024Z,26.05
2022-12-09T08:29:01.135Z,18.63
2022-12-09T08:31:29.665Z,16.13
2022-12-09T08:33:57.650Z,15.05
2022-12-09T08:36:27.432Z,15.10
2022-12-09T08:38:55.260Z,13.18
2022-12-09T08:41:35.416Z,13.40
2022-12-09T08:44:06.321Z,13.98
2022-12-09T08:46:35.638Z,13.35
2022-12-09T08:49:03.631Z,14.43
2022-12-09T08:51:31.863Z,14.27
2022-12-09T08:53:59.718Z,16.85
2022-12-09T08:56:27.007Z,15.38
2022-12-09T08:58:55.455Z,16.13
2022-12-09T09:01:26.844Z,14.77
2022-12-09T09:03:53.957Z,14.30
2022-12-09T09:06:21.152Z,13.30
2022-12-09T09:08:48.706Z,12.90
2022-12-09T09:11:18.680Z,14.32
2022-12-09T09:13:48.766Z,20.92
2022-12-09T09:16:19.409Z,15.82
2022-12-09T09:18:46.562Z,19.38
2022-12-09T09:21:16.094Z,18.00
2022-12-09T09:23:43.134Z,29.30
2022-12-09T09:26:12.410Z,25.13
2022-12-09T09:28:40.583Z,18.88
2022-12-09T09:31:09.479Z,17.35
2022-12-09T09:33:36.604Z,42.58
2022-12-09T09:36:10.187Z,16.63
2022-12-09T09:41:28.764Z,13.32
2022-12-09T09:43:57.382Z,14.13
2022-12-09T09:46:39.043Z,12.85
2022-12-09T09:49:13.203Z,12.75
2022-12-09T09:51:40.175Z,12.43
2022-12-09T09:54:10.824Z,12.55
2022-12-09T09:56:55.958Z,14.13
2022-12-09T09:59:22.984Z,18.63
2022-12-09T10:02:05.878Z,12.65
2022-12-09T10:05:00.161Z,12.93
2022-12-09T10:07:42.920Z,18.05
2022-12-09T10:10:39.627Z,12.95
2022-12-09T10:13:19.484Z,14.25
2022-12-09T10:16:17.713Z,15.50
2022-12-09T10:18:47.992Z,13.98
2022-12-09T10:21:20.877Z,14.02
2022-12-09T10:23:49.045Z,14.45
2022-12-09T10:26:42.528Z,14.95
2022-12-09T10:29:24.043Z,14.40
2022-12-09T10:31:50.802Z,12.63
2022-12-09T10:34:17.750Z,15.02
2022-12-09T10:36:46.096Z,14.80
2022-12-09T10:39:21.137Z,13.60
2022-12-09T10:42:12.078Z,14.18
2022-12-09T10:44:39.156Z,13.82
2022-12-09T10:47:29.134Z,12.90
2022-12-09T10:49:57.045Z,12.38
2022-12-09T10:52:28.301Z,14.68
2022-12-09T10:54:55.223Z,15.75
2022-12-09T10:57:26.720Z,14.48
2022-12-09T11:00:21.666Z,12.93
2022-12-09T11:02:54.558Z,13.90
2022-12-09T11:05:24.307Z,15.45
2022-12-09T11:07:53.324Z,13.98
2022-12-09T11:10:25.079Z,14.75
2022-12-09T11:13:04.588Z,13.02
2022-12-09T11:15:41.419Z,14.20
2022-12-09T11:18:26.591Z,14.23
2022-12-09T11:20:59.091Z,16.52
2022-12-09T11:23:26.346Z,12.43
2022-12-09T11:26:06.194Z,16.38
2022-12-09T11:28:39.327Z,13.65
2022-12-09T11:31:29.367Z,16.45
2022-12-09T11:34:00.323Z,16.08
2022-12-09T11:36:40.642Z,13.57
2022-12-09T11:39:27.536Z,17.63
2022-12-09T11:42:17.896Z,24.10
2022-12-09T11:44:53.875Z,16.35
2022-12-09T11:47:44.857Z,15.88
2022-12-09T11:50:20.340Z,16.77
2022-12-09T11:53:17.210Z,18.13
2022-12-09T11:55:52.450Z,18.40
2022-12-09T11:58:40.743Z,15.63
2022-12-09T12:01:17.409Z,16.02
2022-12-09T12:04:04.709Z,14.80
2022-12-09T12:06:48.322Z,15.95
2022-12-09T12:09:27.251Z,14.27
2022-12-09T12:12:09.556Z,17.63
2022-12-09T12:14:40.399Z,17.67
2022-12-09T12:17:37.074Z,16.17
2022-12-09T12:20:05.545Z,21.20
2022-12-09T12:23:13.589Z,18.83
2022-12-09T12:26:10.945Z,15.82
2022-12-09T12:28:40.595Z,15.70
2022-12-09T12:31:53.626Z,15.55
2022-12-09T12:34:47.953Z,13.80
2022-12-09T12:40:04.213Z,13.70
2022-12-09T12:43:06.648Z,13.63
2022-12-09T12:46:02.080Z,14.07
2022-12-09T12:48:40.572Z,12.98
2022-12-09T12:51:38.411Z,13.93
2022-12-09T12:54:23.291Z,14.77
2022-12-09T12:57:10.066Z,15.05
2022-12-09T13:00:11.105Z,16.15
2022-12-09T13:03:07.458Z,14.07
2022-12-09T13:05:39.570Z,12.90
2022-12-09T13:08:19.469Z,14.40
2022-12-09T13:10:56.291Z,15.02
2022-12-09T13:13:48.886Z,18.98
2022-12-09T13:16:27.782Z,14.40
2022-12-09T13:19:05.689Z,14.25
2022-12-09T13:21:32.860Z,15.20
2022-12-09T13:24:21.467Z,16.40
2022-12-09T13:27:05.982Z,17.48
2022-12-09T13:29:50.881Z,13.90
2022-12-09T13:32:49.260Z,12.68
2022-12-09T13:35:27.005Z,14.10
2022-12-09T13:37:54.775Z,14.45
2022-12-09T13:40:21.430Z,15.48
2022-12-09T13:43:01.233Z,17.80
2022-12-09T13:45:42.783Z,14.93
2022-12-09T13:48:16.855Z,17.52
2022-12-09T13:50:59.413Z,19.52
2022-12-09T13:53:39.993Z,23.35
2022-12-09T13:56:18.335Z,18.05
2022-12-09T13:59:17.457Z,17.80
2022-12-09T14:01:56.261Z,17.65
2022-12-09T14:04:28.087Z,15.10
2022-12-09T14:07:08.277Z,18.17
2022-12-09T14:09:49.881Z,24.23
2022-12-09T14:12:25.716Z,21.98
2022-12-09T14:15:22.349Z,17.13
2022-12-09T14:17:48.939Z,16.20
2022-12-09T14:20:25.483Z,17.20
2022-12-09T14:23:10.270Z,15.02
2022-12-09T14:25:36.827Z,18.05
2022-12-09T14:28:12.276Z,14.80
2022-12-09T14:30:47.979Z,17.50
2022-12-09T14:33:32.448Z,16.02
2022-12-09T14:36:07.012Z,13.38
2022-12-09T14:39:22.439Z,19.50
2022-12-09T14:41:51.120Z,16.25
2022-12-09T14:44:48.900Z,13.48
2022-12-09T14:47:26.908Z,13.40
2022-12-09T14:49:55.335Z,13.38
2022-12-09T14:52:23.458Z,13.95
2022-12-09T14:54:52.460Z,14.20
2022-12-09T14:57:27.337Z,13.68
2022-12-09T14:59:56.678Z,13.25
2022-12-09T15:02:25.029Z,14.13
2022-12-09T15:04:55.032Z,15.90
2022-12-09T15:07:30.620Z,15.35
2022-12-09T15:10:03.040Z,15.57
2022-12-09T15:12:35.380Z,14.40
2022-12-09T15:15:11.192Z,14.63
2022-12-09T15:17:45.163Z,17.50
2022-12-09T15:20:30.865Z,15.48
2022-12-09T15:23:04.531Z,16.52
2022-12-09T15:27:59.766Z,15.38
2022-12-09T15:30:35.356Z,16.00
2022-12-09T15:33:03.460Z,14.48
2022-12-09T15:35:33.109Z,19.73
2022-12-09T15:38:07.118Z,14.88
2022-12-09T15:40:36.494Z,13.27
2022-12-09T15:43:06.917Z,14.02
2022-12-09T15:45:36.849Z,14.05
2022-12-09T15:48:21.102Z,12.27
2022-12-09T15:50:54.981Z,13.30
2022-12-09T15:53:44.521Z,13.23
2022-12-09T15:56:21.523Z,13.75
2022-12-09T15:58:51.356Z,14.25
2022-12-09T16:01:30.370Z,21.40
2022-12-09T16:03:59.403Z,22.85
2022-12-09T16:06:32.432Z,30.45
2022-12-09T16:09:00.060Z,23.48
2022-12-09T16:11:43.259Z,21.90
2022-12-09T16:14:11.273Z,19.02
2022-12-09T16:17:17.792Z,18.73
2022-12-09T16:19:45.252Z,17.50
2022-12-09T16:22:21.381Z,19.40
2022-12-09T16:25:13.761Z,20.42
2022-12-09T16:27:37.321Z,20.83
2022-12-09T16:30:30.564Z,20.35
2022-12-09T16:32:58.913Z,20.45
2022-12-09T16:35:38.606Z,16.92
2022-12-09T16:38:11.054Z,15.15
2022-12-09T16:40:46.518Z,14.23
2022-12-09T16:43:16.032Z,15.50
2022-12-09T16:45:48.113Z,14.85
2022-12-09T16:48:17.129Z,16.13
2022-12-09T16:50:51.240Z,15.13
2022-12-09T16:53:21.065Z,16.27
2022-12-09T16:55:55.819Z,17.48
2022-12-09T16:58:22.910Z,17.58
2022-12-09T17:00:50.385Z,18.67
2022-12-09T17:03:28.328Z,18.58
2022-12-09T17:05:54.924Z,20.33
2022-12-09T17:08:21.693Z,17.60
2022-12-09T17:10:48.372Z,18.42
2022-12-09T17:13:14.977Z,20.05
2022-12-09T17:15:42.140Z,21.67
2022-12-09T17:18:10.013Z,23.52
2022-12-09T17:20:37.813Z,23.77
2022-12-09T17:23:05.109Z,25.75
2022-12-09T17:25:33.389Z,24.92
2022-12-09T17:28:04.989Z,26.80
2022-12-09T17:30:31.914Z,24.50
2022-12-09T17:32:59.672Z,23.35
2022-12-09T17:35:27.094Z,20.38
2022-12-09T17:37:53.716Z,21.85
2022-12-09T17:40:21.126Z,20.92
2022-12-09T17:42:47.695Z,21.95
2022-12-09T17:45:15.224Z,19.02
2022-12-09T17:47:41.942Z,21.90
2022-12-09T17:50:09.451Z,22.13
2022-12-09T17:52:36.609Z,21.67
2022-12-09T17:55:03.436Z,19.67
2022-12-09T17:57:30.057Z,18.55
2022-12-09T17:59:56.766Z,19.40
2022-12-09T18:02:23.445Z,19.48
2022-12-09T18:04:50.050Z,18.33
2022-12-09T18:07:16.672Z,20.10
2022-12-09T18:09:43.286Z,19.25
2022-12-09T18:12:09.960Z,18.83
2022-12-09T18:14:36.540Z,20.70
2022-12-09T18:17:03.269Z,21.27
2022-12-09T18:19:30.247Z,22.05
2022-12-09T18:21:57.440Z,21.08
2022-12-09T18:24:24.272Z,21.90
2022-12-09T18:26:50.906Z,22.52
2022-12-09T18:29:17.636Z,20.67
2022-12-09T18:31:51.514Z,21.05
2022-12-09T18:34:20.732Z,20.85
2022-12-09T18:36:47.361Z,19.25
2022-12-09T18:39:16.180Z,19.08
2022-12-09T18:41:45.473Z,18.75
2022-12-09T18:44:14.660Z,18.30
2022-12-09T18:46:49.273Z,16.08
2022-12-09T18:49:23.957Z,15.75
2022-12-09T18:51:52.595Z,16.10
2022-12-09T18:54:26.331Z,16.67
2022-12-09T18:56:54.517Z,16.45
2022-12-09T18:59:25.213Z,16.42
2022-12-09T19:01:52.657Z,16.55
2022-12-09T19:04:22.861Z,16.55
2022-12-09T19:06:52.143Z,14.77
2022-12-09T19:09:22.381Z,14.52
2022-12-09T19:11:50.992Z,14.32
2022-12-09T19:14:20.229Z,15.90
2022-12-09T19:16:47.654Z,14.85
2022-12-09T19:19:16.805Z,15.45
2022-12-09T19:21:43.621Z,16.25
2022-12-09T19:24:16.748Z,15.18
2022-12-09T19:26:43.788Z,16.05
2022-12-09T19:29:11.556Z,16.23
2022-12-09T19:31:41.077Z,16.38
2022-12-09T19:34:20.972Z,15.18
2022-12-09T19:36:49.357Z,13.98
2022-12-09T19:39:17.977Z,15.52
2022-12-09T19:41:45.346Z,14.85
2022-12-09T19:44:21.499Z,14.82
2022-12-09T19:46:58.030Z,14.55
2022-12-09T19:49:25.109Z,14.60
2022-12-09T19:51:52.759Z,14.30
2022-12-09T19:54:26.733Z,14.13
2022-12-09T19:56:55.361Z,14.15
2022-12-09T19:59:22.092Z,13.38
2022-12-09T20:01:48.813Z,13.27
2022-12-09T20:04:47.664Z,13.90
2022-12-09T20:07:08.130Z,12.68
2022-12-09T20:09:36.056Z,13.43
2022-12-09T20:12:02.725Z,14.18
2022-12-09T20:14:29.312Z,14.35
2022-12-09T20:16:56.074Z,14.77
2022-12-09T20:19:23.625Z,15.32
2022-12-09T20:21:50.249Z,15.70
2022-12-09T20:24:16.925Z,15.45
2022-12-09T20:26:44.728Z,14.15
2022-12-09T20:29:11.646Z,13.77
2022-12-09T20:31:39.238Z,13.25
2022-12-09T20:34:10.519Z,13.85
2022-12-09T20:36:39.265Z,12.27
2022-12-09T20:39:12.292Z,13.45
2022-12-09T20:41:39.877Z,13.32
2022-12-09T20:44:06.518Z,13.13
2022-12-09T20:46:33.640Z,12.82
2022-12-09T20:49:00.840Z,13.93
2022-12-09T20:51:33.136Z,13.20
2022-12-09T20:54:00.383Z,13.07
2022-12-09T20:56:28.478Z,13.15
2022-12-09T20:58:55.695Z,13.57
2022-12-09T21:01:34.120Z,12.40
2022-12-09T21:04:02.339Z,12.82
2022-12-09T21:06:32.343Z,12.73
2022-12-09T21:09:03.961Z,12.63
2022-12-09T21:11:30.640Z,13.25
2022-12-09T21:13:59.383Z,13.55
2022-12-09T21:16:28.541Z,11.75
2022-12-09T21:18:57.817Z,12.82
2022-12-09T21:21:26.623Z,13.38
2022-12-09T21:23:54.554Z,12.50
2022-12-09T21:26:23.708Z,13.18
2022-12-09T21:28:51.552Z,12.88
2022-12-09T21:31:20.799Z,12.00
2022-12-09T21:33:49.119Z,37.63
2022-12-09T21:36:19.078Z,34.75
2022-12-09T21:38:46.009Z,20.85
2022-12-09T21:41:17.727Z,15.70
2022-12-09T21:43:45.281Z,13.80
2022-12-09T21:46:18.856Z,13.35
2022-12-09T21:48:52.365Z,14.80
2022-12-09T21:51:19.766Z,20.17
2022-12-09T21:53:47.016Z,13.60
2022-12-09T21:56:15.711Z,12.32
2022-12-09T21:58:45.212Z,15.23
2022-12-09T22:01:16.545Z,12.57
2022-12-09T22:03:43.845Z,12.57
2022-12-09T22:06:11.415Z,12.60
2022-12-09T22:08:39.330Z,12.25
2022-12-09T22:11:17.859Z,13.65
2022-12-09T22:13:44.788Z,12.18
2022-12-09T22:16:14.626Z,12.00
2022-12-09T22:18:41.795Z,11.95
2022-12-09T22:21:30.620Z,12.80
2022-12-09T22:23:59.750Z,12.95
2022-12-09T22:26:27.032Z,12.52
2022-12-09T22:28:55.957Z,12.38
2022-12-09T22:31:25.707Z,12.38
2022-12-09T22:33:54.446Z,12.88
2022-12-09T22:36:21.738Z,13.52
2022-12-09T22:38:48.794Z,14.48
2022-12-09T22:41:21.606Z,13.30
2022-12-09T22:43:49.827Z,13.88
2022-12-09T22:46:19.692Z,13.80
2022-12-09T22:48:46.699Z,14.68
2022-12-09T22:51:22.288Z,12.80
2022-12-09T22:53:50.537Z,12.55
2022-12-09T22:56:18.360Z,13.38
2022-12-09T22:58:45.630Z,12.90
2022-12-09T23:01:20.906Z,13.77
2022-12-09T23:03:47.774Z,13.00
2022-12-09T23:06:14.788Z,12.70
2022-12-09T23:08:43.386Z,12.45
2022-12-09T23:11:16.387Z,13.55
2022-12-09T23:13:43.983Z,13.00
2022-12-09T23:16:16.432Z,12.35
2022-12-09T23:18:43.339Z,12.52
2022-12-09T23:21:13.692Z,12.40
2022-12-09T23:23:41.091Z,12.45
2022-12-09T23:26:19.696Z,12.98
2022-12-09T23:28:49.344Z,12.82
2022-12-09T23:31:19.091Z,11.55
2022-12-09T23:33:48.536Z,12.07
2022-12-09T23:36:28.411Z,11.80
2022-12-09T23:38:55.223Z,12.27
2022-12-09T23:41:23.444Z,12.05
2022-12-09T23:43:51.273Z,11.68
2022-12-09T23:46:23.287Z,11.40
2022-12-09T23:48:51.379Z,12.45
2022-12-09T23:51:23.265Z,12.10
2022-12-09T23:53:51.890Z,13.20
2022-12-09T23:56:21.227Z,12.75
2022-12-09T23:58:52.509Z,12.43
